TVF1383 LIMC-LIRF
Flight info
| Callsign | TVF1383 |
|---|---|
| Flight time | N/A |
| Altitude | 31000 |
| Route | ROBAS DCT TINKU DCT XIBIL |
| Aircraft | B738/M-SDE2E3FGHIRWXY/LB1 |
Departure
| Time | 2026-05-05 11:36 |
|---|---|
| Airport | Milan Malpensa International Airport (LIMC) |
Arrival
| Time | N/A |
|---|---|
| Airport | Rome–Fiumicino Leonardo da Vinci International Airport (LIRF) |
| Time | Latitude | Longitude | Altitude | Speed | Heading |
|---|---|---|---|---|---|
| 2026-05-05 11:25 | 45.60879 | 8.72086 | 752 ft | 0 kts | 134° |
| 2026-05-05 11:30 | 45.60876 | 8.72090 | 751 ft | 6 kts | 134° |
| 2026-05-05 11:30 | 45.60825 | 8.72156 | 750 ft | 14 kts | 142° |
| 2026-05-05 11:30 | 45.60739 | 8.72218 | 748 ft | 16 kts | 161° |
| 2026-05-05 11:31 | 45.60642 | 8.72287 | 751 ft | 14 kts | 115° |
| 2026-05-05 11:31 | 45.60636 | 8.72469 | 752 ft | 17 kts | 93° |
| 2026-05-05 11:31 | 45.60626 | 8.72679 | 752 ft | 25 kts | 93° |
| 2026-05-05 11:31 | 45.60611 | 8.72854 | 752 ft | 19 kts | 96° |
| 2026-05-05 11:32 | 45.60597 | 8.73086 | 750 ft | 28 kts | 94° |
| 2026-05-05 11:32 | 45.60644 | 8.73267 | 753 ft | 22 kts | 33° |
| 2026-05-05 11:32 | 45.60770 | 8.73345 | 749 ft | 16 kts | 19° |
| 2026-05-05 11:32 | 45.60870 | 8.73402 | 749 ft | 15 kts | 21° |
| 2026-05-05 11:33 | 45.60970 | 8.73395 | 750 ft | 15 kts | 346° |
| 2026-05-05 11:33 | 45.61065 | 8.73358 | 750 ft | 14 kts | 343° |
| 2026-05-05 11:33 | 45.61167 | 8.73332 | 751 ft | 22 kts | 352° |
| 2026-05-05 11:33 | 45.61399 | 8.73274 | 750 ft | 29 kts | 347° |
| 2026-05-05 11:34 | 45.61590 | 8.73249 | 749 ft | 23 kts | 38° |
| 2026-05-05 11:34 | 45.61624 | 8.73440 | 752 ft | 13 kts | 111° |
| 2026-05-05 11:34 | 45.61595 | 8.73556 | 751 ft | 12 kts | 96° |
| 2026-05-05 11:34 | 45.61602 | 8.73689 | 744 ft | 15 kts | 65° |
| 2026-05-05 11:35 | 45.61645 | 8.73722 | 744 ft | 0 kts | 352° |
| 2026-05-05 11:35 | 45.61720 | 8.73705 | 744 ft | 40 kts | 350° |
| 2026-05-05 11:35 | 45.62240 | 8.73567 | 743 ft | 110 kts | 349° |
| 2026-05-05 11:36 | 45.63167 | 8.73273 | 750 ft | 161 kts | 349° |
| 2026-05-05 11:36 | 45.64351 | 8.72966 | 1201 ft | 177 kts | 350° |
| 2026-05-05 11:36 | 45.65673 | 8.72677 | 1471 ft | 205 kts | 355° |
| 2026-05-05 11:36 | 45.67048 | 8.72623 | 2480 ft | 193 kts | 1° |
| 2026-05-05 11:37 | 45.68430 | 8.72618 | 3062 ft | 209 kts | 2° |
| 2026-05-05 11:37 | 45.69953 | 8.72612 | 3217 ft | 228 kts | 1° |
| 2026-05-05 11:37 | 45.71574 | 8.72520 | 3357 ft | 237 kts | 350° |
| 2026-05-05 11:37 | 45.73009 | 8.71394 | 3470 ft | 240 kts | 311° |
| 2026-05-05 11:38 | 45.73760 | 8.69288 | 3583 ft | 241 kts | 278° |
| 2026-05-05 11:38 | 45.73637 | 8.66938 | 3708 ft | 238 kts | 250° |
| 2026-05-05 11:38 | 45.73010 | 8.64742 | 3856 ft | 240 kts | 244° |
| 2026-05-05 11:38 | 45.72301 | 8.62575 | 3942 ft | 239 kts | 245° |
| 2026-05-05 11:39 | 45.71599 | 8.60449 | 4051 ft | 235 kts | 243° |
| 2026-05-05 11:39 | 45.70776 | 8.58423 | 4183 ft | 236 kts | 236° |
| 2026-05-05 11:39 | 45.69618 | 8.56756 | 4207 ft | 244 kts | 205° |
| 2026-05-05 11:39 | 45.67921 | 8.56224 | 4425 ft | 261 kts | 174° |
| 2026-05-05 11:40 | 45.66213 | 8.57077 | 4586 ft | 264 kts | 140° |
| 2026-05-05 11:40 | 45.65100 | 8.59092 | 4844 ft | 262 kts | 119° |
| 2026-05-05 11:40 | 45.64198 | 8.61400 | 5020 ft | 268 kts | 118° |
| 2026-05-05 11:40 | 45.63314 | 8.63731 | 5204 ft | 264 kts | 119° |
| 2026-05-05 11:41 | 45.62449 | 8.66004 | 5359 ft | 258 kts | 119° |
| 2026-05-05 11:41 | 45.61866 | 8.67523 | 5472 ft | 259 kts | 119° |
| 2026-05-05 11:41 | 45.61002 | 8.69757 | 5659 ft | 262 kts | 120° |
| 2026-05-05 11:41 | 45.60102 | 8.72063 | 5833 ft | 263 kts | 120° |
| 2026-05-05 11:42 | 45.59215 | 8.74320 | 6022 ft | 265 kts | 120° |
| 2026-05-05 11:42 | 45.58298 | 8.76641 | 6242 ft | 264 kts | 120° |
| 2026-05-05 11:42 | 45.57397 | 8.78916 | 6500 ft | 263 kts | 120° |
| 2026-05-05 11:42 | 45.56497 | 8.81180 | 6733 ft | 262 kts | 121° |
| 2026-05-05 11:43 | 45.55589 | 8.83457 | 6982 ft | 268 kts | 121° |
| 2026-05-05 11:43 | 45.54665 | 8.85769 | 7232 ft | 273 kts | 121° |
| 2026-05-05 11:43 | 45.53725 | 8.88121 | 7478 ft | 273 kts | 121° |
| 2026-05-05 11:43 | 45.52781 | 8.90481 | 7734 ft | 274 kts | 121° |
| 2026-05-05 11:44 | 45.51832 | 8.92847 | 7982 ft | 275 kts | 122° |
| 2026-05-05 11:44 | 45.50877 | 8.95226 | 8243 ft | 278 kts | 122° |
| 2026-05-05 11:44 | 45.49887 | 8.97687 | 8576 ft | 294 kts | 122° |
| 2026-05-05 11:44 | 45.48828 | 9.00311 | 8866 ft | 316 kts | 122° |
| 2026-05-05 11:45 | 45.47693 | 9.03126 | 9202 ft | 339 kts | 122° |
| 2026-05-05 11:45 | 45.46474 | 9.06146 | 9471 ft | 365 kts | 122° |
| 2026-05-05 11:45 | 45.45174 | 9.09360 | 9633 ft | 380 kts | 122° |
| 2026-05-05 11:45 | 45.43846 | 9.12650 | 9924 ft | 385 kts | 122° |
| 2026-05-05 11:46 | 45.42528 | 9.15917 | 10157 ft | 385 kts | 122° |
| 2026-05-05 11:46 | 45.41193 | 9.19224 | 10394 ft | 386 kts | 122° |
| 2026-05-05 11:46 | 45.39850 | 9.22541 | 10632 ft | 387 kts | 122° |
| 2026-05-05 11:46 | 45.38502 | 9.25862 | 10873 ft | 388 kts | 122° |
| 2026-05-05 11:47 | 45.37147 | 9.29196 | 11123 ft | 390 kts | 123° |
| 2026-05-05 11:47 | 45.35786 | 9.32541 | 11362 ft | 392 kts | 123° |
| 2026-05-05 11:47 | 45.34415 | 9.35908 | 11615 ft | 395 kts | 123° |
| 2026-05-05 11:47 | 45.33033 | 9.39294 | 11927 ft | 397 kts | 123° |
| 2026-05-05 11:48 | 45.30245 | 9.46118 | 12421 ft | 401 kts | 123° |
| 2026-05-05 11:48 | 45.28843 | 9.49544 | 12680 ft | 402 kts | 123° |
| 2026-05-05 11:48 | 45.27433 | 9.52985 | 12926 ft | 404 kts | 123° |
| 2026-05-05 11:49 | 45.26017 | 9.56437 | 13180 ft | 405 kts | 124° |
| 2026-05-05 11:49 | 45.24591 | 9.59911 | 13431 ft | 407 kts | 124° |
| 2026-05-05 11:49 | 45.23159 | 9.63394 | 13694 ft | 408 kts | 124° |
| 2026-05-05 11:49 | 45.21725 | 9.66877 | 13911 ft | 409 kts | 124° |
| 2026-05-05 11:50 | 45.20161 | 9.70221 | 14078 ft | 407 kts | 134° |
| 2026-05-05 11:50 | 45.18136 | 9.72889 | 14298 ft | 398 kts | 148° |
| 2026-05-05 11:50 | 45.15747 | 9.74866 | 14566 ft | 390 kts | 161° |
| 2026-05-05 11:50 | 45.13278 | 9.76288 | 14877 ft | 387 kts | 162° |
| 2026-05-05 11:51 | 45.10777 | 9.77703 | 15075 ft | 388 kts | 162° |
| 2026-05-05 11:51 | 45.08279 | 9.79122 | 15334 ft | 386 kts | 162° |
| 2026-05-05 11:51 | 45.05786 | 9.80548 | 15577 ft | 386 kts | 162° |
| 2026-05-05 11:51 | 45.03300 | 9.81978 | 15817 ft | 385 kts | 162° |
| 2026-05-05 11:52 | 45.00811 | 9.83374 | 16069 ft | 384 kts | 163° |
| 2026-05-05 11:52 | 44.98313 | 9.84728 | 16308 ft | 384 kts | 163° |
| 2026-05-05 11:52 | 44.95815 | 9.86065 | 16557 ft | 383 kts | 164° |
| 2026-05-05 11:52 | 44.93320 | 9.87398 | 16805 ft | 383 kts | 164° |
| 2026-05-05 11:53 | 44.90829 | 9.88731 | 17064 ft | 383 kts | 164° |
| 2026-05-05 11:53 | 44.88339 | 9.90065 | 17323 ft | 382 kts | 163° |
| 2026-05-05 11:53 | 44.85854 | 9.91400 | 17595 ft | 382 kts | 163° |
| 2026-05-05 11:53 | 44.83370 | 9.92734 | 17836 ft | 382 kts | 163° |
| 2026-05-05 11:54 | 44.80888 | 9.94068 | 18094 ft | 382 kts | 163° |
| 2026-05-05 11:54 | 44.78378 | 9.95414 | 18369 ft | 389 kts | 163° |
| 2026-05-05 11:54 | 44.75821 | 9.96783 | 18617 ft | 396 kts | 163° |
| 2026-05-05 11:54 | 44.73222 | 9.98174 | 18858 ft | 403 kts | 164° |
| 2026-05-05 11:55 | 44.70573 | 9.99591 | 19011 ft | 412 kts | 163° |
| 2026-05-05 11:55 | 44.67878 | 10.01028 | 18948 ft | 427 kts | 163° |
| 2026-05-05 11:55 | 44.65073 | 10.02526 | 18999 ft | 436 kts | 163° |
| 2026-05-05 11:55 | 44.62203 | 10.04059 | 18971 ft | 443 kts | 163° |
| 2026-05-05 11:56 | 44.59333 | 10.05595 | 18987 ft | 440 kts | 163° |
| 2026-05-05 11:56 | 44.56490 | 10.07118 | 18990 ft | 435 kts | 163° |
| 2026-05-05 11:56 | 44.53656 | 10.08633 | 18961 ft | 436 kts | 163° |
| 2026-05-05 11:56 | 44.50815 | 10.10147 | 18977 ft | 437 kts | 163° |
| 2026-05-05 11:57 | 44.47976 | 10.11656 | 18978 ft | 437 kts | 163° |
| 2026-05-05 11:57 | 44.45127 | 10.13168 | 18990 ft | 438 kts | 163° |
| 2026-05-05 11:57 | 44.42279 | 10.14679 | 18947 ft | 437 kts | 163° |
| 2026-05-05 11:58 | 44.33334 | 10.19413 | 18992 ft | 436 kts | 163° |
| 2026-05-05 11:58 | 44.30486 | 10.20916 | 18950 ft | 438 kts | 163° |
| 2026-05-05 11:58 | 44.27643 | 10.22416 | 19000 ft | 438 kts | 163° |
| 2026-05-05 11:59 | 44.24782 | 10.23923 | 18981 ft | 440 kts | 163° |
| 2026-05-05 11:59 | 44.21944 | 10.25416 | 18995 ft | 439 kts | 163° |